Gran Canaria > ESTACION METEOROLÓGICA Mogán

DATOS ACTUALES Online

Ultima actulizacion 1 h 39 minutos

22.5 ºC

Temperatura

61

Humedad (%)

Presión (mb)

0

Precipitación (mm)

3.3 W

Viento (Km/h)

DATOS DIARIOS

Temperatura últimas 24 horas (ºC)

Humedad últimas 24 horas (%)

Presión atmosférica últimas 24 horas (mb)

Precipitaciones últimas 23 horas (mm)

Viento últimas 24 horas (Km/h)

Hora Temperatura (°C) ºC Precipitación (mm) mm Presión (mb) mb Humedad (%) % Viento (Km/h) km/h
28 - 10:00 23.7 0 0 53 3.5 W
28 - 11:00 23.6 0 0 53 2.1 SW
28 - 12:00 23.9 0 0 51 3.3 S
28 - 13:00 24.7 0 0 51 2.6 S
28 - 14:00 23.2 0 0 54 3.9 SW
28 - 15:00 23.9 0 0 55 4.1 S
28 - 16:00 24 0 0 54 3.3 SO
28 - 17:00 23 0 0 56 4.4 SO
28 - 18:00 24.1 0 0 55 3.3 S
28 - 19:00 22.8 0 0 60 4.9 SW
28 - 20:00 22.7 0 0 61 3.2 S
28 - 21:00 22.2 0 0 63 4.6 SO
28 - 22:00 21.8 0 0 66 2.6 SO
28 - 23:00 21.9 0 0 66 3.8 SW
29 - 00:00 21.6 0 0 66 3.1 O
29 - 01:00 21.6 0 0 62 1.1 O
29 - 02:00 21.3 0 0 65 2 W
29 - 03:00 21.2 0 0 66 0.9 NO
29 - 04:00 21.2 0 0 66 2.3 NO
29 - 05:00 20.9 0 0 65 1 N
29 - 06:00 21.1 0 0 65 1 N
29 - 07:00 20.9 0 0 65 3 O
29 - 08:00 21.1 0 0 64 1.9 NO
29 - 09:00 22.5 0 0 61 3.3 W
29 - 10:00
Apalmet utiliza cookies propias y de terceros para mejorar la usabilidad y la experiencia web. Política de cookies.